Weather at Ranston Airstrip

Public forecast

Using degrees Celsius for public forecast. Weather courtesy of forecast.io.

Closest aviation weather report (METAR) to Ranston Airstrip

Closest report is Bournemouth Airport, 15.3 nm (28.4 km) ESE. Retrieved 2020/09/27 16:20 UTC (0 seconds ago):

EGHH 271620Z 35015KT 290V040 CAVOK 16/02 Q1013

Closest aviation forecast (TAF) to Ranston Airstrip

Forecast is more than 12 hours old.

Closest forecast is Bournemouth Airport, 15.3 nm (28.4 km) ESE. Retrieved 2020/02/21 21:06 UTC (7 months ago):

TAF EGHH 210200Z 2021/2123 CNL